sensor_id;sensor_type;location;lat;lon;timestamp;P1;durP1;ratioP1;P2;durP2;ratioP2
51332;SDS011;37417;48.118;11.734;2023-02-28T00:01:20;2.00;;;1.77;;
51332;SDS011;37417;48.118;11.734;2023-02-28T00:03:45;4.15;;;2.30;;
51332;SDS011;37417;48.118;11.734;2023-02-28T00:06:11;5.25;;;2.53;;
51332;SDS011;37417;48.118;11.734;2023-02-28T00:08:36;4.38;;;2.20;;
51332;SDS011;37417;48.118;11.734;2023-02-28T00:11:05;1.58;;;1.45;;
51332;SDS011;37417;48.118;11.734;2023-02-28T00:13:32;2.05;;;1.65;;
51332;SDS011;37417;48.118;11.734;2023-02-28T00:15:59;3.22;;;2.15;;
51332;SDS011;37417;48.118;11.734;2023-02-28T00:18:25;3.20;;;1.95;;
51332;SDS011;37417;48.118;11.734;2023-02-28T00:20:50;2.70;;;2.00;;
51332;SDS011;37417;48.118;11.734;2023-02-28T00:23:15;3.83;;;2.07;;
51332;SDS011;37417;48.118;11.734;2023-02-28T00:25:40;2.73;;;1.90;;
51332;SDS011;37417;48.118;11.734;2023-02-28T00:28:05;5.82;;;2.47;;
51332;SDS011;37417;48.118;11.734;2023-02-28T00:30:31;3.55;;;2.63;;
51332;SDS011;37417;48.118;11.734;2023-02-28T00:32:56;2.53;;;2.33;;
51332;SDS011;37417;48.118;11.734;2023-02-28T00:35:21;2.90;;;2.20;;
51332;SDS011;37417;48.118;11.734;2023-02-28T00:37:47;3.55;;;2.38;;
51332;SDS011;37417;48.118;11.734;2023-02-28T00:40:12;1.70;;;1.60;;
51332;SDS011;37417;48.118;11.734;2023-02-28T00:42:38;5.70;;;2.05;;
51332;SDS011;37417;48.118;11.734;2023-02-28T00:45:03;3.17;;;2.42;;
51332;SDS011;37417;48.118;11.734;2023-02-28T00:47:32;3.13;;;2.10;;
51332;SDS011;37417;48.118;11.734;2023-02-28T00:49:58;5.63;;;2.45;;
51332;SDS011;37417;48.118;11.734;2023-02-28T00:52:23;5.68;;;1.83;;
51332;SDS011;37417;48.118;11.734;2023-02-28T00:54:48;3.50;;;2.40;;
51332;SDS011;37417;48.118;11.734;2023-02-28T00:57:13;5.07;;;2.63;;
51332;SDS011;37417;48.118;11.734;2023-02-28T00:59:38;6.87;;;2.27;;
51332;SDS011;37417;48.118;11.734;2023-02-28T01:02:03;2.23;;;2.03;;
51332;SDS011;37417;48.118;11.734;2023-02-28T01:04:29;5.88;;;2.63;;
51332;SDS011;37417;48.118;11.734;2023-02-28T01:06:54;3.83;;;2.47;;
51332;SDS011;37417;48.118;11.734;2023-02-28T01:09:19;3.77;;;2.37;;
51332;SDS011;37417;48.118;11.734;2023-02-28T01:11:44;3.40;;;2.53;;
51332;SDS011;37417;48.118;11.734;2023-02-28T01:14:13;3.90;;;2.13;;
51332;SDS011;37417;48.118;11.734;2023-02-28T01:16:39;2.55;;;2.13;;
51332;SDS011;37417;48.118;11.734;2023-02-28T01:19:04;4.70;;;2.55;;
51332;SDS011;37417;48.118;11.734;2023-02-28T01:21:29;2.97;;;2.33;;
51332;SDS011;37417;48.118;11.734;2023-02-28T01:23:56;4.50;;;2.92;;
51332;SDS011;37417;48.118;11.734;2023-02-28T01:26:22;3.38;;;2.78;;
51332;SDS011;37417;48.118;11.734;2023-02-28T01:28:47;5.22;;;2.80;;
51332;SDS011;37417;48.118;11.734;2023-02-28T01:31:12;3.08;;;2.30;;
51332;SDS011;37417;48.118;11.734;2023-02-28T01:33:38;2.63;;;2.17;;
51332;SDS011;37417;48.118;11.734;2023-02-28T01:36:04;3.85;;;2.55;;
51332;SDS011;37417;48.118;11.734;2023-02-28T01:38:30;4.45;;;2.33;;
51332;SDS011;37417;48.118;11.734;2023-02-28T01:40:55;4.15;;;2.35;;
51332;SDS011;37417;48.118;11.734;2023-02-28T01:43:25;2.63;;;2.38;;
51332;SDS011;37417;48.118;11.734;2023-02-28T01:45:51;4.05;;;2.10;;
51332;SDS011;37417;48.118;11.734;2023-02-28T01:48:17;5.22;;;2.95;;
51332;SDS011;37417;48.118;11.734;2023-02-28T01:50:44;3.17;;;2.15;;
51332;SDS011;37417;48.118;11.734;2023-02-28T01:53:11;4.20;;;2.80;;
51332;SDS011;37417;48.118;11.734;2023-02-28T01:55:38;2.83;;;2.38;;
51332;SDS011;37417;48.118;11.734;2023-02-28T01:58:04;5.00;;;2.90;;
51332;SDS011;37417;48.118;11.734;2023-02-28T02:00:30;4.82;;;3.03;;
51332;SDS011;37417;48.118;11.734;2023-02-28T02:02:57;3.50;;;2.38;;
51332;SDS011;37417;48.118;11.734;2023-02-28T02:05:25;4.10;;;2.28;;
51332;SDS011;37417;48.118;11.734;2023-02-28T02:07:51;6.15;;;3.40;;
51332;SDS011;37417;48.118;11.734;2023-02-28T02:10:21;6.60;;;3.38;;
51332;SDS011;37417;48.118;11.734;2023-02-28T02:12:55;7.25;;;2.22;;
51332;SDS011;37417;48.118;11.734;2023-02-28T02:17:56;5.90;;;3.33;;
51332;SDS011;37417;48.118;11.734;2023-02-28T02:20:30;4.85;;;3.13;;
51332;SDS011;37417;48.118;11.734;2023-02-28T02:23:29;4.53;;;2.65;;
51332;SDS011;37417;48.118;11.734;2023-02-28T02:38:47;7.10;;;3.25;;
51332;SDS011;37417;48.118;11.734;2023-02-28T02:44:11;4.60;;;3.30;;
51332;SDS011;37417;48.118;11.734;2023-02-28T02:46:37;4.10;;;2.78;;
51332;SDS011;37417;48.118;11.734;2023-02-28T02:49:06;7.03;;;3.28;;
51332;SDS011;37417;48.118;11.734;2023-02-28T02:51:33;8.00;;;4.05;;
51332;SDS011;37417;48.118;11.734;2023-02-28T02:54:06;6.40;;;3.38;;
51332;SDS011;37417;48.118;11.734;2023-02-28T02:56:33;3.40;;;2.65;;
51332;SDS011;37417;48.118;11.734;2023-02-28T02:59:01;3.70;;;3.35;;
51332;SDS011;37417;48.118;11.734;2023-02-28T03:01:27;7.75;;;3.42;;
51332;SDS011;37417;48.118;11.734;2023-02-28T03:03:55;4.78;;;2.78;;
51332;SDS011;37417;48.118;11.734;2023-02-28T03:06:20;5.32;;;3.40;;
51332;SDS011;37417;48.118;11.734;2023-02-28T03:08:45;10.20;;;3.60;;
51332;SDS011;37417;48.118;11.734;2023-02-28T03:11:12;7.87;;;3.90;;
51332;SDS011;37417;48.118;11.734;2023-02-28T03:13:59;4.72;;;3.13;;
51332;SDS011;37417;48.118;11.734;2023-02-28T03:21:36;11.23;;;3.45;;
51332;SDS011;37417;48.118;11.734;2023-02-28T03:26:43;6.78;;;3.88;;
51332;SDS011;37417;48.118;11.734;2023-02-28T03:29:19;7.38;;;3.95;;
51332;SDS011;37417;48.118;11.734;2023-02-28T03:31:54;4.97;;;3.13;;
51332;SDS011;37417;48.118;11.734;2023-02-28T03:34:24;6.07;;;3.85;;
51332;SDS011;37417;48.118;11.734;2023-02-28T03:36:52;6.88;;;4.00;;
51332;SDS011;37417;48.118;11.734;2023-02-28T03:39:34;5.72;;;3.17;;
51332;SDS011;37417;48.118;11.734;2023-02-28T03:42:03;6.18;;;3.45;;
51332;SDS011;37417;48.118;11.734;2023-02-28T03:44:30;7.32;;;3.67;;
51332;SDS011;37417;48.118;11.734;2023-02-28T03:47:01;4.50;;;3.55;;
51332;SDS011;37417;48.118;11.734;2023-02-28T03:49:28;8.13;;;3.50;;
51332;SDS011;37417;48.118;11.734;2023-02-28T03:51:56;6.25;;;3.55;;
51332;SDS011;37417;48.118;11.734;2023-02-28T03:54:24;6.13;;;3.80;;
51332;SDS011;37417;48.118;11.734;2023-02-28T03:56:51;8.05;;;4.03;;
51332;SDS011;37417;48.118;11.734;2023-02-28T03:59:26;7.18;;;4.03;;
51332;SDS011;37417;48.118;11.734;2023-02-28T04:01:53;8.57;;;4.28;;
51332;SDS011;37417;48.118;11.734;2023-02-28T04:04:19;9.18;;;4.07;;
51332;SDS011;37417;48.118;11.734;2023-02-28T04:06:45;5.97;;;3.63;;
51332;SDS011;37417;48.118;11.734;2023-02-28T04:09:11;4.78;;;3.42;;
51332;SDS011;37417;48.118;11.734;2023-02-28T04:11:38;9.20;;;4.25;;
51332;SDS011;37417;48.118;11.734;2023-02-28T04:14:04;7.18;;;4.00;;
51332;SDS011;37417;48.118;11.734;2023-02-28T04:16:29;8.38;;;4.38;;
51332;SDS011;37417;48.118;11.734;2023-02-28T04:18:55;7.63;;;4.05;;
51332;SDS011;37417;48.118;11.734;2023-02-28T04:21:27;9.60;;;4.60;;
51332;SDS011;37417;48.118;11.734;2023-02-28T04:23:53;6.68;;;4.13;;
51332;SDS011;37417;48.118;11.734;2023-02-28T04:26:18;13.02;;;4.78;;
51332;SDS011;37417;48.118;11.734;2023-02-28T04:28:43;10.57;;;4.93;;
51332;SDS011;37417;48.118;11.734;2023-02-28T04:31:08;10.10;;;5.37;;
51332;SDS011;37417;48.118;11.734;2023-02-28T04:33:33;7.50;;;4.37;;
51332;SDS011;37417;48.118;11.734;2023-02-28T04:36:05;7.43;;;4.60;;
51332;SDS011;37417;48.118;11.734;2023-02-28T04:38:35;8.48;;;5.00;;
51332;SDS011;37417;48.118;11.734;2023-02-28T04:41:00;6.57;;;4.93;;
51332;SDS011;37417;48.118;11.734;2023-02-28T04:43:26;8.93;;;4.30;;
51332;SDS011;37417;48.118;11.734;2023-02-28T04:45:51;11.93;;;5.20;;
51332;SDS011;37417;48.118;11.734;2023-02-28T04:48:16;13.98;;;4.60;;
51332;SDS011;37417;48.118;11.734;2023-02-28T04:50:42;11.30;;;4.97;;
51332;SDS011;37417;48.118;11.734;2023-02-28T04:53:07;8.90;;;4.90;;
51332;SDS011;37417;48.118;11.734;2023-02-28T04:55:32;10.17;;;5.57;;
51332;SDS011;37417;48.118;11.734;2023-02-28T04:57:57;12.63;;;6.27;;
51332;SDS011;37417;48.118;11.734;2023-02-28T05:00:22;10.45;;;5.55;;
51332;SDS011;37417;48.118;11.734;2023-02-28T05:02:48;10.40;;;6.22;;
51332;SDS011;37417;48.118;11.734;2023-02-28T05:05:13;12.83;;;6.10;;
51332;SDS011;37417;48.118;11.734;2023-02-28T05:07:43;10.18;;;6.07;;
51332;SDS011;37417;48.118;11.734;2023-02-28T05:10:08;13.57;;;7.07;;
51332;SDS011;37417;48.118;11.734;2023-02-28T05:12:33;6.15;;;4.78;;
51332;SDS011;37417;48.118;11.734;2023-02-28T05:14:59;12.10;;;6.43;;
51332;SDS011;37417;48.118;11.734;2023-02-28T05:17:24;14.38;;;6.72;;
51332;SDS011;37417;48.118;11.734;2023-02-28T05:19:49;8.95;;;5.45;;
51332;SDS011;37417;48.118;11.734;2023-02-28T05:22:14;12.53;;;8.40;;
51332;SDS011;37417;48.118;11.734;2023-02-28T05:24:43;12.85;;;7.88;;
51332;SDS011;37417;48.118;11.734;2023-02-28T05:27:08;15.20;;;8.45;;
51332;SDS011;37417;48.118;11.734;2023-02-28T05:29:33;9.18;;;6.03;;
51332;SDS011;37417;48.118;11.734;2023-02-28T05:31:59;14.82;;;9.60;;
51332;SDS011;37417;48.118;11.734;2023-02-28T05:34:24;15.60;;;8.38;;
51332;SDS011;37417;48.118;11.734;2023-02-28T05:36:49;10.53;;;6.97;;
51332;SDS011;37417;48.118;11.734;2023-02-28T05:39:14;13.48;;;8.40;;
51332;SDS011;37417;48.118;11.734;2023-02-28T05:41:40;13.80;;;8.20;;
51332;SDS011;37417;48.118;11.734;2023-02-28T05:44:06;14.93;;;9.23;;
51332;SDS011;37417;48.118;11.734;2023-02-28T05:46:31;13.70;;;8.13;;
51332;SDS011;37417;48.118;11.734;2023-02-28T05:48:56;16.55;;;8.55;;
51332;SDS011;37417;48.118;11.734;2023-02-28T05:51:22;15.43;;;8.10;;
51332;SDS011;37417;48.118;11.734;2023-02-28T05:53:47;17.08;;;8.07;;
51332;SDS011;37417;48.118;11.734;2023-02-28T05:56:14;15.05;;;7.07;;
51332;SDS011;37417;48.118;11.734;2023-02-28T05:58:39;14.27;;;7.77;;
51332;SDS011;37417;48.118;11.734;2023-02-28T06:01:24;5.25;;;4.20;;
51332;SDS011;37417;48.118;11.734;2023-02-28T06:03:50;14.10;;;9.75;;
51332;SDS011;37417;48.118;11.734;2023-02-28T06:06:15;20.35;;;10.10;;
51332;SDS011;37417;48.118;11.734;2023-02-28T06:08:40;12.85;;;8.50;;
51332;SDS011;37417;48.118;11.734;2023-02-28T06:11:08;14.68;;;9.45;;
51332;SDS011;37417;48.118;11.734;2023-02-28T06:13:33;22.73;;;10.77;;
51332;SDS011;37417;48.118;11.734;2023-02-28T06:16:00;13.73;;;8.10;;
51332;SDS011;37417;48.118;11.734;2023-02-28T06:18:25;9.73;;;6.82;;
51332;SDS011;37417;48.118;11.734;2023-02-28T06:20:54;17.57;;;10.43;;
51332;SDS011;37417;48.118;11.734;2023-02-28T06:23:20;14.88;;;9.18;;
51332;SDS011;37417;48.118;11.734;2023-02-28T06:25:46;17.88;;;9.27;;
51332;SDS011;37417;48.118;11.734;2023-02-28T06:28:11;11.77;;;8.80;;
51332;SDS011;37417;48.118;11.734;2023-02-28T06:30:37;12.57;;;5.87;;
51332;SDS011;37417;48.118;11.734;2023-02-28T06:33:02;12.82;;;8.95;;
51332;SDS011;37417;48.118;11.734;2023-02-28T06:35:27;10.23;;;5.70;;
51332;SDS011;37417;48.118;11.734;2023-02-28T06:37:52;13.17;;;7.87;;
51332;SDS011;37417;48.118;11.734;2023-02-28T06:40:18;14.30;;;7.60;;
51332;SDS011;37417;48.118;11.734;2023-02-28T06:42:43;14.02;;;8.18;;
51332;SDS011;37417;48.118;11.734;2023-02-28T06:45:08;15.45;;;8.80;;
51332;SDS011;37417;48.118;11.734;2023-02-28T06:47:34;14.73;;;9.98;;
51332;SDS011;37417;48.118;11.734;2023-02-28T06:50:00;10.20;;;7.00;;
51332;SDS011;37417;48.118;11.734;2023-02-28T06:52:26;9.63;;;7.47;;
51332;SDS011;37417;48.118;11.734;2023-02-28T06:54:51;15.27;;;7.38;;
51332;SDS011;37417;48.118;11.734;2023-02-28T06:57:24;13.45;;;8.27;;
51332;SDS011;37417;48.118;11.734;2023-02-28T06:59:50;10.98;;;5.80;;
51332;SDS011;37417;48.118;11.734;2023-02-28T07:02:15;8.77;;;5.07;;
51332;SDS011;37417;48.118;11.734;2023-02-28T07:04:40;13.03;;;8.33;;
51332;SDS011;37417;48.118;11.734;2023-02-28T07:07:08;17.55;;;9.63;;
51332;SDS011;37417;48.118;11.734;2023-02-28T07:09:33;17.48;;;10.10;;
51332;SDS011;37417;48.118;11.734;2023-02-28T07:11:59;14.70;;;9.93;;
51332;SDS011;37417;48.118;11.734;2023-02-28T07:14:25;17.95;;;8.98;;
51332;SDS011;37417;48.118;11.734;2023-02-28T07:16:50;10.93;;;6.93;;
51332;SDS011;37417;48.118;11.734;2023-02-28T07:19:16;16.33;;;9.98;;
51332;SDS011;37417;48.118;11.734;2023-02-28T07:21:41;11.45;;;5.22;;
51332;SDS011;37417;48.118;11.734;2023-02-28T07:24:06;16.58;;;9.40;;
51332;SDS011;37417;48.118;11.734;2023-02-28T07:26:31;13.20;;;9.05;;
51332;SDS011;37417;48.118;11.734;2023-02-28T07:28:59;10.05;;;6.28;;
51332;SDS011;37417;48.118;11.734;2023-02-28T07:31:24;19.90;;;10.43;;
51332;SDS011;37417;48.118;11.734;2023-02-28T07:33:49;13.25;;;7.47;;
51332;SDS011;37417;48.118;11.734;2023-02-28T07:36:15;17.00;;;10.23;;
51332;SDS011;37417;48.118;11.734;2023-02-28T07:38:42;20.88;;;9.85;;
51332;SDS011;37417;48.118;11.734;2023-02-28T07:41:08;14.02;;;9.57;;
51332;SDS011;37417;48.118;11.734;2023-02-28T07:43:34;13.85;;;10.32;;
51332;SDS011;37417;48.118;11.734;2023-02-28T07:46:09;16.33;;;10.40;;
51332;SDS011;37417;48.118;11.734;2023-02-28T07:48:34;14.80;;;8.57;;
51332;SDS011;37417;48.118;11.734;2023-02-28T07:50:59;14.73;;;10.03;;
51332;SDS011;37417;48.118;11.734;2023-02-28T07:53:25;13.38;;;7.07;;
51332;SDS011;37417;48.118;11.734;2023-02-28T07:55:54;19.23;;;9.65;;
51332;SDS011;37417;48.118;11.734;2023-02-28T07:58:19;12.93;;;8.35;;
51332;SDS011;37417;48.118;11.734;2023-02-28T08:00:44;14.87;;;8.63;;
51332;SDS011;37417;48.118;11.734;2023-02-28T08:03:12;11.47;;;7.40;;
51332;SDS011;37417;48.118;11.734;2023-02-28T08:05:40;15.25;;;9.27;;
51332;SDS011;37417;48.118;11.734;2023-02-28T08:08:06;14.90;;;9.07;;
51332;SDS011;37417;48.118;11.734;2023-02-28T08:10:32;18.33;;;9.50;;
51332;SDS011;37417;48.118;11.734;2023-02-28T08:12:57;15.05;;;8.57;;
51332;SDS011;37417;48.118;11.734;2023-02-28T08:15:22;15.70;;;9.55;;
51332;SDS011;37417;48.118;11.734;2023-02-28T08:17:47;12.40;;;8.80;;
51332;SDS011;37417;48.118;11.734;2023-02-28T08:20:12;14.13;;;9.37;;
51332;SDS011;37417;48.118;11.734;2023-02-28T08:22:38;16.42;;;10.20;;
51332;SDS011;37417;48.118;11.734;2023-02-28T08:25:03;10.63;;;6.90;;
51332;SDS011;37417;48.118;11.734;2023-02-28T08:27:28;16.90;;;10.80;;
51332;SDS011;37417;48.118;11.734;2023-02-28T08:29:53;14.20;;;8.97;;
51332;SDS011;37417;48.118;11.734;2023-02-28T08:32:19;19.00;;;9.82;;
51332;SDS011;37417;48.118;11.734;2023-02-28T08:34:44;12.32;;;7.93;;
51332;SDS011;37417;48.118;11.734;2023-02-28T08:37:09;11.90;;;9.02;;
51332;SDS011;37417;48.118;11.734;2023-02-28T08:39:35;16.52;;;10.05;;
51332;SDS011;37417;48.118;11.734;2023-02-28T08:42:01;14.07;;;8.15;;
51332;SDS011;37417;48.118;11.734;2023-02-28T08:44:26;7.90;;;6.25;;
51332;SDS011;37417;48.118;11.734;2023-02-28T08:46:52;17.58;;;9.38;;
51332;SDS011;37417;48.118;11.734;2023-02-28T08:49:17;16.17;;;10.70;;
51332;SDS011;37417;48.118;11.734;2023-02-28T08:51:43;14.90;;;9.70;;
51332;SDS011;37417;48.118;11.734;2023-02-28T08:54:08;15.52;;;10.15;;
51332;SDS011;37417;48.118;11.734;2023-02-28T08:56:34;16.15;;;10.20;;
51332;SDS011;37417;48.118;11.734;2023-02-28T08:58:59;16.35;;;9.63;;
51332;SDS011;37417;48.118;11.734;2023-02-28T09:01:26;12.93;;;9.93;;
51332;SDS011;37417;48.118;11.734;2023-02-28T09:03:54;13.02;;;8.75;;
51332;SDS011;37417;48.118;11.734;2023-02-28T09:06:20;12.63;;;8.70;;
51332;SDS011;37417;48.118;11.734;2023-02-28T09:08:46;19.58;;;10.00;;
51332;SDS011;37417;48.118;11.734;2023-02-28T09:11:12;14.95;;;8.88;;
51332;SDS011;37417;48.118;11.734;2023-02-28T09:13:37;14.02;;;9.07;;
51332;SDS011;37417;48.118;11.734;2023-02-28T09:16:04;18.20;;;10.52;;
51332;SDS011;37417;48.118;11.734;2023-02-28T09:18:30;16.42;;;9.95;;
51332;SDS011;37417;48.118;11.734;2023-02-28T09:20:55;13.18;;;9.75;;
51332;SDS011;37417;48.118;11.734;2023-02-28T09:23:21;13.82;;;9.93;;
51332;SDS011;37417;48.118;11.734;2023-02-28T09:25:47;14.20;;;8.98;;
51332;SDS011;37417;48.118;11.734;2023-02-28T09:28:13;13.13;;;8.75;;
51332;SDS011;37417;48.118;11.734;2023-02-28T09:30:40;16.42;;;10.35;;
51332;SDS011;37417;48.118;11.734;2023-02-28T09:33:05;15.53;;;8.70;;
51332;SDS011;37417;48.118;11.734;2023-02-28T09:35:31;13.70;;;9.23;;
51332;SDS011;37417;48.118;11.734;2023-02-28T09:37:56;12.82;;;8.57;;
51332;SDS011;37417;48.118;11.734;2023-02-28T09:40:22;14.37;;;10.23;;
51332;SDS011;37417;48.118;11.734;2023-02-28T09:42:49;14.27;;;8.77;;
51332;SDS011;37417;48.118;11.734;2023-02-28T09:45:27;13.63;;;8.32;;
51332;SDS011;37417;48.118;11.734;2023-02-28T09:47:54;14.32;;;9.20;;
51332;SDS011;37417;48.118;11.734;2023-02-28T09:52:57;14.73;;;10.18;;
51332;SDS011;37417;48.118;11.734;2023-02-28T09:55:37;18.17;;;10.52;;
51332;SDS011;37417;48.118;11.734;2023-02-28T09:58:04;14.75;;;6.70;;
51332;SDS011;37417;48.118;11.734;2023-02-28T10:00:33;13.68;;;9.02;;
51332;SDS011;37417;48.118;11.734;2023-02-28T10:05:50;14.43;;;7.70;;
51332;SDS011;37417;48.118;11.734;2023-02-28T10:08:14;14.32;;;7.45;;
51332;SDS011;37417;48.118;11.734;2023-02-28T10:10:42;9.38;;;5.38;;
51332;SDS011;37417;48.118;11.734;2023-02-28T10:13:19;13.65;;;9.88;;
51332;SDS011;37417;48.118;11.734;2023-02-28T10:15:47;10.77;;;7.70;;
51332;SDS011;37417;48.118;11.734;2023-02-28T10:18:15;14.05;;;9.23;;
51332;SDS011;37417;48.118;11.734;2023-02-28T10:20:41;11.73;;;7.72;;
51332;SDS011;37417;48.118;11.734;2023-02-28T10:25:34;17.75;;;9.77;;
51332;SDS011;37417;48.118;11.734;2023-02-28T10:28:21;14.73;;;10.07;;
51332;SDS011;37417;48.118;11.734;2023-02-28T10:30:49;14.05;;;9.27;;
51332;SDS011;37417;48.118;11.734;2023-02-28T10:33:22;15.73;;;9.20;;
51332;SDS011;37417;48.118;11.734;2023-02-28T10:35:48;15.43;;;8.98;;
51332;SDS011;37417;48.118;11.734;2023-02-28T10:38:24;15.38;;;8.65;;
51332;SDS011;37417;48.118;11.734;2023-02-28T10:40:50;9.38;;;6.20;;
51332;SDS011;37417;48.118;11.734;2023-02-28T10:50:53;13.50;;;8.13;;
51332;SDS011;37417;48.118;11.734;2023-02-28T10:55:56;9.60;;;6.35;;
51332;SDS011;37417;48.118;11.734;2023-02-28T10:58:23;16.40;;;9.13;;
51332;SDS011;37417;48.118;11.734;2023-02-28T11:00:49;11.45;;;7.30;;
51332;SDS011;37417;48.118;11.734;2023-02-28T11:05:49;12.77;;;8.32;;
51332;SDS011;37417;48.118;11.734;2023-02-28T11:08:15;12.43;;;8.55;;
51332;SDS011;37417;48.118;11.734;2023-02-28T11:10:48;18.10;;;8.88;;
51332;SDS011;37417;48.118;11.734;2023-02-28T11:13:19;12.80;;;8.45;;
51332;SDS011;37417;48.118;11.734;2023-02-28T11:15:55;12.82;;;8.70;;
51332;SDS011;37417;48.118;11.734;2023-02-28T11:18:30;12.73;;;8.88;;
51332;SDS011;37417;48.118;11.734;2023-02-28T11:20:59;13.80;;;8.18;;
51332;SDS011;37417;48.118;11.734;2023-02-28T11:23:26;12.10;;;8.95;;
51332;SDS011;37417;48.118;11.734;2023-02-28T11:25:54;15.27;;;8.52;;
51332;SDS011;37417;48.118;11.734;2023-02-28T11:28:38;10.43;;;7.60;;
51332;SDS011;37417;48.118;11.734;2023-02-28T11:33:40;10.23;;;7.00;;
51332;SDS011;37417;48.118;11.734;2023-02-28T11:36:12;11.27;;;7.28;;
51332;SDS011;37417;48.118;11.734;2023-02-28T11:38:37;15.10;;;7.35;;
51332;SDS011;37417;48.118;11.734;2023-02-28T11:41:16;13.15;;;8.00;;
51332;SDS011;37417;48.118;11.734;2023-02-28T11:46:27;10.07;;;7.23;;
51332;SDS011;37417;48.118;11.734;2023-02-28T11:49:01;12.50;;;9.18;;
51332;SDS011;37417;48.118;11.734;2023-02-28T11:51:31;15.63;;;10.18;;
51332;SDS011;37417;48.118;11.734;2023-02-28T11:56:39;11.43;;;8.90;;
51332;SDS011;37417;48.118;11.734;2023-02-28T11:59:11;11.30;;;7.45;;
51332;SDS011;37417;48.118;11.734;2023-02-28T12:07:16;14.52;;;8.60;;
51332;SDS011;37417;48.118;11.734;2023-02-28T12:12:23;10.07;;;6.65;;
51332;SDS011;37417;48.118;11.734;2023-02-28T12:20:27;10.80;;;7.75;;
51332;SDS011;37417;48.118;11.734;2023-02-28T12:23:15;11.38;;;8.93;;
51332;SDS011;37417;48.118;11.734;2023-02-28T12:28:10;14.63;;;8.82;;
51332;SDS011;37417;48.118;11.734;2023-02-28T12:30:37;11.23;;;8.50;;
51332;SDS011;37417;48.118;11.734;2023-02-28T12:33:07;13.73;;;8.85;;
51332;SDS011;37417;48.118;11.734;2023-02-28T12:35:53;8.20;;;6.88;;
51332;SDS011;37417;48.118;11.734;2023-02-28T12:41:44;14.00;;;7.45;;
51332;SDS011;37417;48.118;11.734;2023-02-28T12:44:21;10.27;;;7.40;;
51332;SDS011;37417;48.118;11.734;2023-02-28T12:46:51;9.85;;;7.35;;
51332;SDS011;37417;48.118;11.734;2023-02-28T12:49:21;11.65;;;7.78;;
51332;SDS011;37417;48.118;11.734;2023-02-28T12:51:46;13.80;;;7.93;;
51332;SDS011;37417;48.118;11.734;2023-02-28T12:54:25;14.18;;;8.82;;
51332;SDS011;37417;48.118;11.734;2023-02-28T12:56:59;10.70;;;8.02;;
51332;SDS011;37417;48.118;11.734;2023-02-28T13:02:23;12.23;;;7.32;;
51332;SDS011;37417;48.118;11.734;2023-02-28T13:07:49;12.93;;;8.68;;
51332;SDS011;37417;48.118;11.734;2023-02-28T13:10:20;13.15;;;7.95;;
51332;SDS011;37417;48.118;11.734;2023-02-28T13:12:52;11.70;;;7.20;;
51332;SDS011;37417;48.118;11.734;2023-02-28T13:15:19;14.32;;;6.72;;
51332;SDS011;37417;48.118;11.734;2023-02-28T13:17:56;10.25;;;7.63;;
51332;SDS011;37417;48.118;11.734;2023-02-28T13:20:33;13.07;;;8.38;;
51332;SDS011;37417;48.118;11.734;2023-02-28T13:22:59;10.45;;;7.38;;
51332;SDS011;37417;48.118;11.734;2023-02-28T13:28:11;9.98;;;6.85;;
51332;SDS011;37417;48.118;11.734;2023-02-28T13:33:31;9.50;;;5.95;;
51332;SDS011;37417;48.118;11.734;2023-02-28T13:46:28;10.37;;;6.73;;
51332;SDS011;37417;48.118;11.734;2023-02-28T13:48:53;10.60;;;5.47;;
51332;SDS011;37417;48.118;11.734;2023-02-28T13:51:52;12.70;;;8.13;;
51332;SDS011;37417;48.118;11.734;2023-02-28T13:54:16;11.65;;;7.10;;
51332;SDS011;37417;48.118;11.734;2023-02-28T13:59:37;11.10;;;7.15;;
51332;SDS011;37417;48.118;11.734;2023-02-28T14:04:42;11.88;;;7.03;;
51332;SDS011;37417;48.118;11.734;2023-02-28T14:07:16;12.18;;;7.30;;
51332;SDS011;37417;48.118;11.734;2023-02-28T14:09:45;10.90;;;7.95;;
51332;SDS011;37417;48.118;11.734;2023-02-28T14:14:55;7.80;;;6.05;;
51332;SDS011;37417;48.118;11.734;2023-02-28T14:17:20;11.13;;;6.80;;
51332;SDS011;37417;48.118;11.734;2023-02-28T14:19:46;9.23;;;6.78;;
51332;SDS011;37417;48.118;11.734;2023-02-28T14:25:07;12.38;;;7.95;;
51332;SDS011;37417;48.118;11.734;2023-02-28T14:27:48;11.10;;;7.40;;
51332;SDS011;37417;48.118;11.734;2023-02-28T14:38:22;11.85;;;6.38;;
51332;SDS011;37417;48.118;11.734;2023-02-28T14:40:49;12.35;;;7.82;;
51332;SDS011;37417;48.118;11.734;2023-02-28T14:43:20;7.40;;;5.82;;
51332;SDS011;37417;48.118;11.734;2023-02-28T14:45:49;10.20;;;7.05;;
51332;SDS011;37417;48.118;11.734;2023-02-28T14:48:16;9.35;;;6.63;;
51332;SDS011;37417;48.118;11.734;2023-02-28T14:50:48;11.18;;;7.18;;
51332;SDS011;37417;48.118;11.734;2023-02-28T14:53:15;10.63;;;7.23;;
51332;SDS011;37417;48.118;11.734;2023-02-28T14:55:44;10.23;;;7.30;;
51332;SDS011;37417;48.118;11.734;2023-02-28T14:58:19;11.45;;;6.65;;
51332;SDS011;37417;48.118;11.734;2023-02-28T15:00:47;11.05;;;6.15;;
51332;SDS011;37417;48.118;11.734;2023-02-28T15:03:20;12.30;;;6.97;;
51332;SDS011;37417;48.118;11.734;2023-02-28T15:05:56;8.40;;;6.00;;
51332;SDS011;37417;48.118;11.734;2023-02-28T15:08:22;10.48;;;6.30;;
51332;SDS011;37417;48.118;11.734;2023-02-28T15:10:54;11.60;;;6.85;;
51332;SDS011;37417;48.118;11.734;2023-02-28T15:13:20;7.32;;;6.22;;
51332;SDS011;37417;48.118;11.734;2023-02-28T15:20:54;7.93;;;6.07;;
51332;SDS011;37417;48.118;11.734;2023-02-28T15:23:20;11.10;;;7.00;;
51332;SDS011;37417;48.118;11.734;2023-02-28T15:25:46;7.63;;;6.53;;
51332;SDS011;37417;48.118;11.734;2023-02-28T15:28:13;8.55;;;6.57;;
51332;SDS011;37417;48.118;11.734;2023-02-28T15:30:39;8.88;;;6.07;;
51332;SDS011;37417;48.118;11.734;2023-02-28T15:33:25;8.60;;;6.87;;
51332;SDS011;37417;48.118;11.734;2023-02-28T15:35:49;10.05;;;6.45;;
51332;SDS011;37417;48.118;11.734;2023-02-28T15:38:22;8.23;;;6.60;;
51332;SDS011;37417;48.118;11.734;2023-02-28T15:40:52;9.52;;;6.03;;
51332;SDS011;37417;48.118;11.734;2023-02-28T15:45:49;9.25;;;6.22;;
51332;SDS011;37417;48.118;11.734;2023-02-28T15:50:44;9.60;;;6.82;;
51332;SDS011;37417;48.118;11.734;2023-02-28T15:53:16;11.18;;;6.72;;
51332;SDS011;37417;48.118;11.734;2023-02-28T15:55:42;9.38;;;6.47;;
51332;SDS011;37417;48.118;11.734;2023-02-28T15:58:08;9.85;;;6.35;;
51332;SDS011;37417;48.118;11.734;2023-02-28T16:00:37;11.65;;;6.75;;
51332;SDS011;37417;48.118;11.734;2023-02-28T16:03:22;10.33;;;6.70;;
51332;SDS011;37417;48.118;11.734;2023-02-28T16:05:50;11.38;;;6.45;;
51332;SDS011;37417;48.118;11.734;2023-02-28T16:08:30;8.80;;;6.30;;
51332;SDS011;37417;48.118;11.734;2023-02-28T16:10:56;16.17;;;6.70;;
51332;SDS011;37417;48.118;11.734;2023-02-28T16:13:21;7.43;;;6.20;;
51332;SDS011;37417;48.118;11.734;2023-02-28T16:15:46;12.53;;;6.63;;
51332;SDS011;37417;48.118;11.734;2023-02-28T16:18:14;12.95;;;6.55;;
51332;SDS011;37417;48.118;11.734;2023-02-28T16:20:39;10.10;;;7.03;;
51332;SDS011;37417;48.118;11.734;2023-02-28T16:23:04;8.63;;;6.20;;
51332;SDS011;37417;48.118;11.734;2023-02-28T16:25:37;9.73;;;6.47;;
51332;SDS011;37417;48.118;11.734;2023-02-28T16:28:03;13.05;;;7.32;;
51332;SDS011;37417;48.118;11.734;2023-02-28T16:30:29;11.70;;;6.88;;
51332;SDS011;37417;48.118;11.734;2023-02-28T16:32:57;13.27;;;7.18;;
51332;SDS011;37417;48.118;11.734;2023-02-28T16:35:23;11.20;;;6.90;;